Time;durP1;ratioP1;P1;durP2;ratioP2;P2;SDS_P1;SDS_P2;PMS_P1;PMS_P2;Temp;Humidity;BMP_temperature;BMP_pressure;BME280_temperature;BME280_humidity;BME280_pressure;Samples;Min_cycle;Max_cycle;Signal;HPM_P1;HPM_P2
2021/05/16 00:00:55;;;;;;;;;;;18.10;50.80;;;;;;461576;258;1039;-46
2021/05/16 00:02:57;;;;;;;;;;;18.00;51.00;;;;;;461138;258;1204;-46
2021/05/16 00:04:58;;;;;;;;;;;18.00;51.00;;;;;;461156;258;1078;-46
2021/05/16 00:06:59;;;;;;;;;;;18.00;51.10;;;;;;461163;258;1080;-46
2021/05/16 00:09:00;;;;;;;;;;;17.90;51.10;;;;;;461470;258;1130;-46
2021/05/16 00:11:02;;;;;;;;;;;17.90;51.10;;;;;;461173;258;1100;-46
2021/05/16 00:13:03;;;;;;;;;;;17.90;51.20;;;;;;461117;258;2129;-46
2021/05/16 00:15:04;;;;;;;;;;;17.90;51.20;;;;;;461130;258;1082;-46
2021/05/16 00:17:06;;;;;;;;;;;17.90;51.20;;;;;;461100;258;1159;-46
2021/05/16 00:19:08;;;;;;;;;;;17.90;51.20;;;;;;461200;258;1117;-46
2021/05/16 00:21:08;;;;;;;;;;;18.00;51.00;;;;;;461093;258;1361;-46
2021/05/16 00:23:09;;;;;;;;;;;18.00;50.80;;;;;;461603;258;1034;-46
2021/05/16 00:25:11;;;;;;;;;;;17.90;51.00;;;;;;461205;258;1157;-46
2021/05/16 00:27:12;;;;;;;;;;;17.90;51.10;;;;;;461221;258;1361;-46
2021/05/16 00:29:13;;;;;;;;;;;17.90;51.00;;;;;;461230;258;1815;-46
2021/05/16 00:31:15;;;;;;;;;;;17.90;51.10;;;;;;461337;258;2156;-46
2021/05/16 00:33:16;;;;;;;;;;;17.80;51.20;;;;;;461175;258;1165;-46
2021/05/16 00:35:17;;;;;;;;;;;17.80;51.40;;;;;;461393;258;1071;-46
2021/05/16 00:37:18;;;;;;;;;;;17.80;51.20;;;;;;461179;258;1338;-46
2021/05/16 00:39:20;;;;;;;;;;;17.80;51.40;;;;;;461376;258;1062;-46
2021/05/16 00:41:21;;;;;;;;;;;17.70;51.50;;;;;;461060;258;1291;-46
2021/05/16 00:43:22;;;;;;;;;;;17.70;51.50;;;;;;461240;258;1056;-46
2021/05/16 00:45:24;;;;;;;;;;;17.70;51.50;;;;;;461226;258;1272;-46
2021/05/16 00:47:25;;;;;;;;;;;17.70;51.60;;;;;;461314;258;1432;-46
2021/05/16 00:49:26;;;;;;;;;;;17.70;51.50;;;;;;461366;258;1065;-46
2021/05/16 00:51:27;;;;;;;;;;;17.80;51.40;;;;;;461154;258;2184;-46
2021/05/16 00:53:29;;;;;;;;;;;17.80;51.40;;;;;;461291;258;1191;-46
2021/05/16 00:55:30;;;;;;;;;;;17.70;51.40;;;;;;461643;258;1045;-46
2021/05/16 00:57:31;;;;;;;;;;;17.70;51.40;;;;;;461189;258;1242;-46
2021/05/16 00:59:33;;;;;;;;;;;17.70;51.50;;;;;;461485;258;1093;-46
2021/05/16 01:01:34;;;;;;;;;;;17.70;51.30;;;;;;461262;258;1206;-46
2021/05/16 01:03:35;;;;;;;;;;;17.80;51.20;;;;;;461255;258;1166;-46
2021/05/16 01:05:37;;;;;;;;;;;17.70;51.30;;;;;;461464;258;1531;-45
2021/05/16 01:07:38;;;;;;;;;;;17.80;51.30;;;;;;461080;258;1161;-46
2021/05/16 01:09:39;;;;;;;;;;;17.70;51.40;;;;;;461069;258;1079;-46
2021/05/16 01:11:44;;;;;;;;;;;17.60;51.50;;;;;;461037;258;2208;-46
2021/05/16 01:13:43;;;;;;;;;;;17.60;51.60;;;;;;461002;258;1377;-46
2021/05/16 01:15:44;;;;;;;;;;;17.60;51.70;;;;;;461145;258;2005;-46
2021/05/16 01:17:45;;;;;;;;;;;17.60;51.70;;;;;;461234;258;1174;-46
2021/05/16 01:19:46;;;;;;;;;;;17.70;51.50;;;;;;461535;258;1087;-46
2021/05/16 01:21:48;;;;;;;;;;;18.00;50.60;;;;;;461069;258;1350;-46
2021/05/16 01:23:49;;;;;;;;;;;18.40;49.50;;;;;;461203;258;1047;-46
2021/05/16 01:25:50;;;;;;;;;;;18.70;48.70;;;;;;461320;258;1473;-46
2021/05/16 01:27:51;;;;;;;;;;;18.90;48.20;;;;;;461289;258;1085;-46
2021/05/16 01:29:52;;;;;;;;;;;19.10;47.80;;;;;;461146;258;1068;-46
2021/05/16 01:31:54;;;;;;;;;;;19.20;47.40;;;;;;461173;258;2216;-46
2021/05/16 01:33:55;;;;;;;;;;;19.30;47.10;;;;;;461285;258;1209;-46
2021/05/16 01:35:56;;;;;;;;;;;19.40;47.00;;;;;;461231;258;1477;-46
2021/05/16 01:37:58;;;;;;;;;;;19.50;46.80;;;;;;461055;258;1282;-46
2021/05/16 01:39:59;;;;;;;;;;;19.50;46.60;;;;;;461187;258;1117;-46
2021/05/16 01:42:00;;;;;;;;;;;19.60;46.50;;;;;;461154;258;1165;-46
2021/05/16 01:44:01;;;;;;;;;;;19.60;46.40;;;;;;461236;258;1218;-46
2021/05/16 01:46:04;;;;;;;;;;;19.70;46.20;;;;;;461435;258;1255;-46
2021/05/16 01:48:05;;;;;;;;;;;19.70;46.20;;;;;;461186;258;1113;-46
2021/05/16 01:50:07;;;;;;;;;;;19.80;46.20;;;;;;461248;258;1083;-46
2021/05/16 01:52:08;;;;;;;;;;;19.80;46.10;;;;;;461105;258;2204;-46
2021/05/16 01:54:09;;;;;;;;;;;19.80;46.00;;;;;;461318;258;1055;-46
2021/05/16 01:56:10;;;;;;;;;;;19.90;45.90;;;;;;461225;258;1266;-46
2021/05/16 01:58:12;;;;;;;;;;;19.90;45.80;;;;;;461108;258;1086;-45
2021/05/16 02:00:13;;;;;;;;;;;19.90;45.80;;;;;;461234;258;1064;-46
2021/05/16 02:02:14;;;;;;;;;;;20.00;45.70;;;;;;461161;258;1587;-46
2021/05/16 02:04:16;;;;;;;;;;;20.00;45.60;;;;;;461105;258;1157;-46
2021/05/16 02:06:17;;;;;;;;;;;20.00;45.50;;;;;;461148;258;1259;-46
2021/05/16 02:08:18;;;;;;;;;;;20.00;45.50;;;;;;461471;258;1081;-46
2021/05/16 02:10:19;;;;;;;;;;;20.10;45.60;;;;;;461186;258;1111;-46
2021/05/16 02:12:22;;;;;;;;;;;20.10;45.50;;;;;;461182;258;2208;-46
2021/05/16 02:14:22;;;;;;;;;;;20.10;45.40;;;;;;461461;258;2419;-46
2021/05/16 02:16:23;;;;;;;;;;;20.10;45.40;;;;;;461103;258;1236;-46
2021/05/16 02:18:24;;;;;;;;;;;20.20;45.40;;;;;;461197;258;1258;-46
2021/05/16 02:20:26;;;;;;;;;;;20.20;45.30;;;;;;461163;258;1271;-46
2021/05/16 02:22:27;;;;;;;;;;;20.20;45.30;;;;;;461187;258;1344;-46
2021/05/16 02:24:28;;;;;;;;;;;20.20;45.20;;;;;;461104;258;1130;-46
2021/05/16 02:26:30;;;;;;;;;;;20.20;45.20;;;;;;461316;258;1089;-46
2021/05/16 02:28:31;;;;;;;;;;;20.30;45.20;;;;;;461173;258;1186;-46
2021/05/16 02:30:32;;;;;;;;;;;20.30;45.20;;;;;;461197;258;980;-46
2021/05/16 02:32:33;;;;;;;;;;;20.30;45.10;;;;;;461065;258;2216;-46
2021/05/16 02:34:35;;;;;;;;;;;20.30;45.00;;;;;;461131;258;1186;-46
2021/05/16 02:36:36;;;;;;;;;;;20.30;45.00;;;;;;461401;258;1171;-46
2021/05/16 02:38:37;;;;;;;;;;;20.40;45.00;;;;;;461277;258;1080;-46
2021/05/16 02:40:39;;;;;;;;;;;20.40;45.00;;;;;;461576;258;1237;-46
2021/05/16 02:42:40;;;;;;;;;;;20.40;45.00;;;;;;461224;258;1204;-46
2021/05/16 02:44:41;;;;;;;;;;;20.40;44.90;;;;;;461176;258;1251;-46
2021/05/16 02:46:42;;;;;;;;;;;20.40;45.00;;;;;;461298;258;1292;-46
2021/05/16 02:48:44;;;;;;;;;;;20.40;44.80;;;;;;461291;258;1221;-46
2021/05/16 02:50:45;;;;;;;;;;;20.50;44.90;;;;;;461181;258;1344;-46
2021/05/16 02:52:46;;;;;;;;;;;20.50;44.80;;;;;;461290;258;2204;-46
2021/05/16 02:54:48;;;;;;;;;;;20.40;44.80;;;;;;461516;258;1577;-46
2021/05/16 02:56:49;;;;;;;;;;;20.50;44.80;;;;;;461178;258;1225;-46
2021/05/16 02:58:50;;;;;;;;;;;20.50;44.80;;;;;;461504;258;1095;-46
2021/05/16 03:00:51;;;;;;;;;;;20.50;44.70;;;;;;461247;258;1387;-46
2021/05/16 03:02:53;;;;;;;;;;;20.50;44.70;;;;;;461265;258;1226;-46
2021/05/16 03:04:54;;;;;;;;;;;20.60;44.80;;;;;;461341;258;1598;-46
2021/05/16 03:06:56;;;;;;;;;;;20.60;44.70;;;;;;461212;258;1361;-46
2021/05/16 03:08:56;;;;;;;;;;;20.60;44.70;;;;;;461190;258;1728;-46
2021/05/16 03:10:58;;;;;;;;;;;20.60;44.70;;;;;;461285;258;1162;-46
2021/05/16 03:12:59;;;;;;;;;;;20.60;44.60;;;;;;461243;258;2157;-46
2021/05/16 03:15:00;;;;;;;;;;;20.60;44.60;;;;;;461145;258;1253;-46
2021/05/16 03:17:02;;;;;;;;;;;20.60;44.60;;;;;;461222;258;1328;-46
2021/05/16 03:19:03;;;;;;;;;;;20.60;44.70;;;;;;461122;258;1065;-46
2021/05/16 03:21:04;;;;;;;;;;;20.60;44.50;;;;;;461183;258;1175;-46
2021/05/16 03:23:05;;;;;;;;;;;20.40;45.00;;;;;;461114;258;1176;-46
2021/05/16 03:25:07;;;;;;;;;;;19.90;46.10;;;;;;461187;258;1101;-46
2021/05/16 03:27:08;;;;;;;;;;;19.50;47.30;;;;;;461276;258;1219;-46
2021/05/16 03:29:09;;;;;;;;;;;19.20;48.00;;;;;;461538;258;1134;-46
2021/05/16 03:31:11;;;;;;;;;;;19.00;48.60;;;;;;461194;258;1144;-46
2021/05/16 03:33:12;;;;;;;;;;;18.80;49.00;;;;;;461445;258;2160;-46
2021/05/16 03:35:13;;;;;;;;;;;18.70;49.30;;;;;;461246;258;1183;-46
2021/05/16 03:37:14;;;;;;;;;;;18.60;49.60;;;;;;461298;258;1272;-45
2021/05/16 03:39:16;;;;;;;;;;;18.50;49.70;;;;;;461370;258;1114;-46
2021/05/16 03:41:17;;;;;;;;;;;18.40;50.00;;;;;;461090;258;1508;-46
2021/05/16 03:43:20;;;;;;;;;;;18.40;50.30;;;;;;461243;258;1068;-46
2021/05/16 03:45:20;;;;;;;;;;;18.40;50.30;;;;;;461304;258;1805;-46
2021/05/16 03:47:21;;;;;;;;;;;18.30;50.40;;;;;;461134;258;1208;-46
2021/05/16 03:49:22;;;;;;;;;;;18.20;50.50;;;;;;461107;258;1063;-46
2021/05/16 03:51:25;;;;;;;;;;;18.20;50.50;;;;;;461130;258;1517;-46
2021/05/16 03:53:25;;;;;;;;;;;18.20;50.60;;;;;;461175;258;2157;-46
2021/05/16 03:55:26;;;;;;;;;;;18.20;50.60;;;;;;461464;258;1423;-45
2021/05/16 03:57:27;;;;;;;;;;;18.10;50.80;;;;;;461446;258;1145;-46
2021/05/16 03:59:28;;;;;;;;;;;18.10;50.80;;;;;;461368;258;1078;-46
2021/05/16 04:01:30;;;;;;;;;;;18.10;51.00;;;;;;461332;258;1077;-46
2021/05/16 04:03:31;;;;;;;;;;;18.00;51.10;;;;;;461378;258;1086;-46
2021/05/16 04:05:32;;;;;;;;;;;18.00;51.00;;;;;;461418;258;1192;-46
2021/05/16 04:07:34;;;;;;;;;;;18.00;51.20;;;;;;461108;258;1121;-46
2021/05/16 04:09:35;;;;;;;;;;;18.00;51.20;;;;;;461228;258;1057;-46
2021/05/16 04:11:36;;;;;;;;;;;17.90;51.20;;;;;;461320;258;1124;-46
2021/05/16 04:13:37;;;;;;;;;;;17.90;51.30;;;;;;461116;258;2204;-46
2021/05/16 04:15:39;;;;;;;;;;;17.90;51.40;;;;;;461033;258;1099;-46
2021/05/16 04:17:40;;;;;;;;;;;17.90;51.40;;;;;;461158;258;1199;-46
2021/05/16 04:19:41;;;;;;;;;;;17.90;51.40;;;;;;461333;258;1093;-46
2021/05/16 04:21:43;;;;;;;;;;;17.90;51.40;;;;;;461129;258;1135;-46
2021/05/16 04:23:44;;;;;;;;;;;17.80;51.50;;;;;;461597;258;1071;-46
2021/05/16 04:25:45;;;;;;;;;;;17.80;51.40;;;;;;461248;258;1365;-46
2021/05/16 04:27:46;;;;;;;;;;;17.80;51.50;;;;;;461167;258;1029;-46
2021/05/16 04:29:48;;;;;;;;;;;17.80;51.60;;;;;;461157;258;1061;-46
2021/05/16 04:31:49;;;;;;;;;;;17.80;51.50;;;;;;461302;258;1241;-46
2021/05/16 04:33:51;;;;;;;;;;;17.90;51.30;;;;;;461077;258;2204;-46
2021/05/16 04:35:52;;;;;;;;;;;17.80;51.40;;;;;;461323;258;1328;-46
2021/05/16 04:37:53;;;;;;;;;;;17.80;51.60;;;;;;461215;258;1139;-46
2021/05/16 04:39:55;;;;;;;;;;;17.70;51.60;;;;;;461187;258;1068;-46
2021/05/16 04:41:56;;;;;;;;;;;17.70;51.70;;;;;;461177;258;1131;-46
2021/05/16 04:43:57;;;;;;;;;;;17.70;51.70;;;;;;461437;258;1131;-46
2021/05/16 04:45:58;;;;;;;;;;;17.70;51.70;;;;;;461288;258;1046;-46
2021/05/16 04:48:00;;;;;;;;;;;17.70;51.70;;;;;;461350;258;1066;-46
2021/05/16 04:50:01;;;;;;;;;;;17.70;51.70;;;;;;461374;258;1121;-46
2021/05/16 04:52:02;;;;;;;;;;;17.70;51.70;;;;;;461150;258;1172;-46
2021/05/16 04:54:04;;;;;;;;;;;17.70;51.70;;;;;;461179;258;2200;-46
2021/05/16 04:56:05;;;;;;;;;;;17.70;51.70;;;;;;461283;258;1077;-46
2021/05/16 04:58:06;;;;;;;;;;;17.70;51.70;;;;;;461096;258;1106;-46
2021/05/16 05:00:07;;;;;;;;;;;17.70;51.60;;;;;;461081;258;1131;-46
2021/05/16 05:02:09;;;;;;;;;;;17.80;51.40;;;;;;461129;258;1126;-46
2021/05/16 05:04:10;;;;;;;;;;;17.80;51.40;;;;;;461068;258;1197;-46
2021/05/16 05:06:11;;;;;;;;;;;17.70;51.50;;;;;;461090;258;1138;-46
2021/05/16 05:08:13;;;;;;;;;;;17.70;51.60;;;;;;461122;258;1339;-46
2021/05/16 05:10:14;;;;;;;;;;;17.60;51.70;;;;;;461062;258;1084;-46
2021/05/16 05:12:15;;;;;;;;;;;17.60;51.70;;;;;;461183;258;1085;-46
2021/05/16 05:14:16;;;;;;;;;;;17.60;51.80;;;;;;461222;258;2141;-46
2021/05/16 05:16:18;;;;;;;;;;;17.60;51.70;;;;;;461274;258;1122;-46
2021/05/16 05:18:19;;;;;;;;;;;17.60;51.70;;;;;;461423;258;1074;-46
2021/05/16 05:20:22;;;;;;;;;;;17.60;51.90;;;;;;461300;258;1108;-46
2021/05/16 05:22:21;;;;;;;;;;;17.60;51.80;;;;;;461102;258;1557;-46
2021/05/16 05:24:24;;;;;;;;;;;17.50;51.80;;;;;;461156;258;1125;-45
2021/05/16 05:26:24;;;;;;;;;;;17.60;51.80;;;;;;461262;258;1659;-46
2021/05/16 05:28:25;;;;;;;;;;;17.60;51.70;;;;;;461257;258;1080;-46
2021/05/16 05:30:27;;;;;;;;;;;17.60;51.70;;;;;;461095;258;1052;-46
2021/05/16 05:32:28;;;;;;;;;;;17.50;51.70;;;;;;461039;258;1339;-46
2021/05/16 05:34:29;;;;;;;;;;;17.50;51.80;;;;;;461073;258;2157;-46
2021/05/16 05:36:31;;;;;;;;;;;17.50;51.90;;;;;;461066;258;1481;-46
2021/05/16 05:38:32;;;;;;;;;;;17.50;51.90;;;;;;461208;258;1166;-45
2021/05/16 05:40:33;;;;;;;;;;;17.50;51.80;;;;;;461233;258;1096;-46
2021/05/16 05:42:35;;;;;;;;;;;17.50;51.90;;;;;;461265;258;1217;-46
2021/05/16 05:44:39;;;;;;;;;;;17.60;51.70;;;;;;461442;258;1075;-46
2021/05/16 05:46:37;;;;;;;;;;;17.50;51.70;;;;;;460921;258;2356;-46
2021/05/16 05:48:38;;;;;;;;;;;17.50;51.70;;;;;;461240;258;1083;-46
2021/05/16 05:50:40;;;;;;;;;;;17.70;51.30;;;;;;461300;258;1169;-46
2021/05/16 05:52:41;;;;;;;;;;;18.10;50.30;;;;;;461363;258;1327;-46
2021/05/16 05:54:43;;;;;;;;;;;18.50;49.30;;;;;;461269;258;2160;-46
2021/05/16 05:56:43;;;;;;;;;;;18.70;48.70;;;;;;461020;258;2231;-46
2021/05/16 05:58:45;;;;;;;;;;;18.90;48.20;;;;;;461404;258;1038;-46
2021/05/16 06:00:46;;;;;;;;;;;19.00;47.90;;;;;;461099;258;1150;-46
2021/05/16 06:02:47;;;;;;;;;;;19.10;47.60;;;;;;461120;258;1234;-46
2021/05/16 06:04:49;;;;;;;;;;;19.20;47.40;;;;;;461124;258;1058;-46
2021/05/16 06:06:50;;;;;;;;;;;19.20;47.20;;;;;;461548;258;1270;-46
2021/05/16 06:08:51;;;;;;;;;;;19.30;47.10;;;;;;461232;258;1194;-46
2021/05/16 06:10:52;;;;;;;;;;;19.40;46.90;;;;;;461505;258;1151;-46
2021/05/16 06:12:54;;;;;;;;;;;19.40;46.70;;;;;;461360;258;1121;-46
2021/05/16 06:14:58;;;;;;;;;;;19.50;46.60;;;;;;461245;258;2208;-46
2021/05/16 06:16:56;;;;;;;;;;;19.60;46.60;;;;;;461223;258;2204;-46
2021/05/16 06:18:59;;;;;;;;;;;19.60;46.40;;;;;;461479;258;1088;-46
2021/05/16 06:20:59;;;;;;;;;;;19.60;46.40;;;;;;461049;258;1281;-46
2021/05/16 06:23:02;;;;;;;;;;;19.70;46.30;;;;;;461065;258;1494;-46
2021/05/16 06:25:01;;;;;;;;;;;19.70;46.20;;;;;;461113;258;1909;-46
2021/05/16 06:27:03;;;;;;;;;;;19.70;46.20;;;;;;460996;258;1412;-46
2021/05/16 06:29:04;;;;;;;;;;;19.80;46.10;;;;;;461130;258;1114;-46
2021/05/16 06:31:05;;;;;;;;;;;19.80;46.00;;;;;;461111;258;1136;-46
2021/05/16 06:33:07;;;;;;;;;;;19.80;45.90;;;;;;461160;259;1369;-46
2021/05/16 06:35:08;;;;;;;;;;;19.90;45.90;;;;;;461212;258;2140;-46
2021/05/16 06:37:09;;;;;;;;;;;19.90;45.80;;;;;;461168;258;1170;-46
2021/05/16 06:39:10;;;;;;;;;;;19.90;45.80;;;;;;461146;258;1203;-46
2021/05/16 06:41:12;;;;;;;;;;;19.90;45.70;;;;;;461219;258;1277;-46
2021/05/16 06:43:14;;;;;;;;;;;20.00;45.70;;;;;;461160;258;1092;-46
2021/05/16 06:45:14;;;;;;;;;;;20.00;45.60;;;;;;461128;258;1700;-46
2021/05/16 06:47:15;;;;;;;;;;;20.00;45.50;;;;;;461206;258;1159;-46
2021/05/16 06:49:17;;;;;;;;;;;20.00;45.50;;;;;;461125;258;1263;-46
2021/05/16 06:51:18;;;;;;;;;;;20.00;45.50;;;;;;461338;258;1359;-46
2021/05/16 06:53:19;;;;;;;;;;;20.10;45.60;;;;;;461151;258;2213;-46
2021/05/16 06:55:21;;;;;;;;;;;20.10;45.50;;;;;;461246;258;1081;-46
2021/05/16 06:57:22;;;;;;;;;;;20.10;45.40;;;;;;461268;258;1194;-46
2021/05/16 06:59:23;;;;;;;;;;;20.10;45.40;;;;;;461209;258;1097;-46
2021/05/16 07:01:25;;;;;;;;;;;20.20;45.40;;;;;;461358;258;1085;-46
2021/05/16 07:03:26;;;;;;;;;;;20.20;45.40;;;;;;461414;258;1092;-46
2021/05/16 07:05:27;;;;;;;;;;;20.20;45.30;;;;;;461516;258;1032;-46
2021/05/16 07:07:29;;;;;;;;;;;20.20;45.40;;;;;;461179;258;1107;-46
2021/05/16 07:09:30;;;;;;;;;;;20.30;45.20;;;;;;461216;258;1218;-46
2021/05/16 07:11:31;;;;;;;;;;;20.10;45.30;;;;;;461207;258;1129;-46
2021/05/16 07:13:33;;;;;;;;;;;19.60;46.40;;;;;;461062;258;2204;-46
2021/05/16 07:15:34;;;;;;;;;;;19.20;47.50;;;;;;461185;258;1202;-46
2021/05/16 07:17:35;;;;;;;;;;;18.90;48.40;;;;;;461187;258;1200;-46
2021/05/16 07:19:36;;;;;;;;;;;18.70;48.90;;;;;;461095;258;1109;-46
2021/05/16 07:21:38;;;;;;;;;;;18.60;49.40;;;;;;461269;258;1515;-46
2021/05/16 07:23:39;;;;;;;;;;;18.40;49.70;;;;;;461222;258;1279;-46
2021/05/16 07:25:40;;;;;;;;;;;18.40;49.90;;;;;;461407;258;1293;-46
2021/05/16 07:27:41;;;;;;;;;;;18.30;50.10;;;;;;461097;258;1113;-46
2021/05/16 07:29:43;;;;;;;;;;;18.20;50.30;;;;;;461349;258;1100;-46
2021/05/16 07:31:44;;;;;;;;;;;18.20;50.50;;;;;;461569;258;2121;-46
2021/05/16 07:33:45;;;;;;;;;;;18.10;50.50;;;;;;461527;258;2153;-46
2021/05/16 07:35:47;;;;;;;;;;;18.10;50.50;;;;;;461210;258;1230;-46
2021/05/16 07:37:48;;;;;;;;;;;18.10;50.50;;;;;;461175;258;1241;-45
2021/05/16 07:39:49;;;;;;;;;;;18.10;50.60;;;;;;461171;258;1196;-46
2021/05/16 07:41:50;;;;;;;;;;;18.00;50.80;;;;;;461060;258;1229;-46
2021/05/16 07:43:52;;;;;;;;;;;17.90;50.90;;;;;;461152;258;1089;-46
2021/05/16 07:45:53;;;;;;;;;;;18.00;50.90;;;;;;461253;258;1456;-46
2021/05/16 07:47:54;;;;;;;;;;;17.90;50.90;;;;;;461159;258;1193;-46
2021/05/16 07:49:56;;;;;;;;;;;17.90;50.90;;;;;;461180;258;1082;-46
2021/05/16 07:51:57;;;;;;;;;;;17.90;50.90;;;;;;461279;258;1187;-46
2021/05/16 07:53:58;;;;;;;;;;;17.90;51.00;;;;;;461222;258;2165;-46
2021/05/16 07:56:00;;;;;;;;;;;17.80;51.20;;;;;;461338;258;1231;-46
2021/05/16 07:58:01;;;;;;;;;;;17.80;51.30;;;;;;461146;258;1088;-46
2021/05/16 08:00:02;;;;;;;;;;;17.80;51.20;;;;;;461202;258;1063;-46
2021/05/16 08:02:03;;;;;;;;;;;17.80;51.30;;;;;;461521;258;1069;-46
2021/05/16 08:04:05;;;;;;;;;;;17.80;51.40;;;;;;461441;258;1065;-46
2021/05/16 08:06:06;;;;;;;;;;;17.70;51.40;;;;;;461149;258;1061;-46
2021/05/16 08:08:07;;;;;;;;;;;17.70;51.50;;;;;;461342;258;1176;-46
2021/05/16 08:10:08;;;;;;;;;;;17.70;51.60;;;;;;461277;258;1245;-46
2021/05/16 08:12:10;;;;;;;;;;;17.70;51.60;;;;;;461160;258;1077;-46
2021/05/16 08:14:11;;;;;;;;;;;17.70;51.50;;;;;;461204;258;2216;-46
2021/05/16 08:16:13;;;;;;;;;;;17.70;51.50;;;;;;461073;258;1239;-46
2021/05/16 08:18:14;;;;;;;;;;;17.70;51.40;;;;;;461471;258;2363;-46
2021/05/16 08:20:15;;;;;;;;;;;17.70;51.50;;;;;;461447;258;1069;-46
2021/05/16 08:22:17;;;;;;;;;;;17.60;51.60;;;;;;461174;258;1100;-46
2021/05/16 08:24:18;;;;;;;;;;;17.60;51.70;;;;;;461449;258;1364;-46
2021/05/16 08:26:19;;;;;;;;;;;17.60;51.70;;;;;;461157;258;1227;-46
2021/05/16 08:28:20;;;;;;;;;;;17.60;51.70;;;;;;461413;258;1068;-46
2021/05/16 08:30:22;;;;;;;;;;;17.60;51.70;;;;;;461410;258;1165;-46
2021/05/16 08:32:23;;;;;;;;;;;17.60;51.60;;;;;;461136;258;1216;-46
2021/05/16 08:34:24;;;;;;;;;;;17.60;51.70;;;;;;461114;258;2349;-46
2021/05/16 08:36:26;;;;;;;;;;;17.50;51.60;;;;;;461293;258;1089;-45
2021/05/16 08:38:27;;;;;;;;;;;17.60;51.70;;;;;;461178;258;1086;-46
2021/05/16 08:40:28;;;;;;;;;;;17.60;51.50;;;;;;461316;258;1180;-46
2021/05/16 08:42:29;;;;;;;;;;;17.60;51.60;;;;;;461109;258;1050;-46
2021/05/16 08:44:31;;;;;;;;;;;17.70;51.50;;;;;;461163;258;1144;-46
2021/05/16 08:46:32;;;;;;;;;;;18.00;50.60;;;;;;461137;258;1314;-46
2021/05/16 08:48:33;;;;;;;;;;;18.40;49.50;;;;;;461171;258;1082;-46
2021/05/16 08:50:35;;;;;;;;;;;18.70;48.70;;;;;;461172;258;1100;-46
2021/05/16 08:52:36;;;;;;;;;;;18.90;48.20;;;;;;461215;258;1348;-46
2021/05/16 08:54:37;;;;;;;;;;;19.00;47.70;;;;;;461561;258;2199;-46
2021/05/16 08:56:38;;;;;;;;;;;19.20;47.50;;;;;;461177;258;1172;-46
2021/05/16 08:58:40;;;;;;;;;;;19.30;47.20;;;;;;461229;258;1253;-46
2021/05/16 09:00:41;;;;;;;;;;;19.30;47.00;;;;;;461269;258;1203;-46
2021/05/16 09:02:42;;;;;;;;;;;19.40;46.90;;;;;;461092;258;1212;-46
2021/05/16 09:04:44;;;;;;;;;;;19.50;46.90;;;;;;461299;258;1092;-46
2021/05/16 09:06:45;;;;;;;;;;;19.50;46.70;;;;;;461231;258;1074;-46
2021/05/16 09:08:46;;;;;;;;;;;19.60;46.60;;;;;;461193;258;1034;-46
2021/05/16 09:10:48;;;;;;;;;;;19.60;46.50;;;;;;461168;258;1223;-46
2021/05/16 09:12:50;;;;;;;;;;;19.60;46.30;;;;;;461139;258;1136;-46
2021/05/16 09:14:51;;;;;;;;;;;19.70;46.30;;;;;;461208;258;2161;-46
2021/05/16 09:16:52;;;;;;;;;;;19.70;46.20;;;;;;461291;258;1554;-46
2021/05/16 09:18:54;;;;;;;;;;;19.70;46.10;;;;;;461615;258;1073;-46
2021/05/16 09:20:55;;;;;;;;;;;19.80;46.10;;;;;;461245;258;2342;-46
2021/05/16 09:22:56;;;;;;;;;;;19.80;46.00;;;;;;461145;258;1219;-46
2021/05/16 09:24:57;;;;;;;;;;;19.80;45.90;;;;;;461167;258;1052;-46
2021/05/16 09:26:59;;;;;;;;;;;19.80;45.90;;;;;;461011;258;1212;-46
2021/05/16 09:29:00;;;;;;;;;;;19.90;45.90;;;;;;461141;258;1107;-46
2021/05/16 09:31:01;;;;;;;;;;;19.90;45.80;;;;;;461207;258;1372;-46
2021/05/16 09:33:02;;;;;;;;;;;19.90;45.60;;;;;;461232;258;1094;-46
2021/05/16 09:35:04;;;;;;;;;;;20.00;45.70;;;;;;461134;258;2216;-46
2021/05/16 09:37:05;;;;;;;;;;;20.00;45.50;;;;;;461262;258;1169;-46
2021/05/16 09:39:06;;;;;;;;;;;20.00;45.50;;;;;;461510;258;1071;-46
2021/05/16 09:41:14;;;;;;;;;;;20.00;45.50;;;;;;461399;258;1214;-46
2021/05/16 09:43:09;;;;;;;;;;;20.10;45.50;;;;;;460841;258;2380;-46
2021/05/16 09:45:10;;;;;;;;;;;20.10;45.60;;;;;;461241;258;1137;-46
2021/05/16 09:47:11;;;;;;;;;;;20.10;45.60;;;;;;461358;258;1241;-46
2021/05/16 09:49:13;;;;;;;;;;;20.10;45.50;;;;;;461555;258;1054;-46
2021/05/16 09:51:15;;;;;;;;;;;20.10;45.40;;;;;;461088;258;1336;-46
2021/05/16 09:53:16;;;;;;;;;;;20.20;45.40;;;;;;461233;258;1080;-46
2021/05/16 09:55:19;;;;;;;;;;;20.20;45.40;;;;;;461106;258;2223;-46
2021/05/16 09:57:19;;;;;;;;;;;20.20;45.30;;;;;;461096;258;2314;-46
2021/05/16 09:59:20;;;;;;;;;;;20.20;45.30;;;;;;461134;258;1107;-46
2021/05/16 10:01:22;;;;;;;;;;;20.20;45.20;;;;;;461335;258;1254;-46
2021/05/16 10:03:23;;;;;;;;;;;20.30;45.20;;;;;;461128;258;1211;-46
2021/05/16 10:05:24;;;;;;;;;;;20.30;45.20;;;;;;461453;258;1195;-46
2021/05/16 10:07:25;;;;;;;;;;;20.30;45.20;;;;;;461347;258;1204;-46
2021/05/16 10:09:27;;;;;;;;;;;20.30;45.10;;;;;;461173;258;1082;-46
2021/05/16 10:11:29;;;;;;;;;;;20.30;45.10;;;;;;461443;258;1416;-46
2021/05/16 10:13:29;;;;;;;;;;;20.30;45.10;;;;;;461164;258;1887;-46
2021/05/16 10:15:35;;;;;;;;;;;20.30;45.00;;;;;;461340;258;2200;-46
2021/05/16 10:17:32;;;;;;;;;;;20.40;45.00;;;;;;460930;258;2651;-46
2021/05/16 10:19:33;;;;;;;;;;;20.40;45.00;;;;;;461167;258;1155;-46
2021/05/16 10:21:34;;;;;;;;;;;20.40;44.90;;;;;;461083;258;985;-46
2021/05/16 10:23:36;;;;;;;;;;;20.40;44.90;;;;;;461108;258;1079;-46
2021/05/16 10:25:37;;;;;;;;;;;20.40;44.90;;;;;;461465;258;1076;-46
2021/05/16 10:27:39;;;;;;;;;;;20.40;44.80;;;;;;461147;258;1331;-46
2021/05/16 10:29:40;;;;;;;;;;;20.50;44.90;;;;;;461245;258;1091;-46
2021/05/16 10:31:42;;;;;;;;;;;20.50;44.80;;;;;;461538;258;1241;-46
2021/05/16 10:33:43;;;;;;;;;;;20.50;44.80;;;;;;461191;258;1073;-46
2021/05/16 10:35:44;;;;;;;;;;;20.50;44.70;;;;;;461458;258;2168;-46
2021/05/16 10:37:46;;;;;;;;;;;20.50;44.70;;;;;;461183;258;1178;-46
2021/05/16 10:39:47;;;;;;;;;;;20.50;44.70;;;;;;461242;258;1165;-46
2021/05/16 10:41:48;;;;;;;;;;;20.50;44.60;;;;;;461259;258;1281;-46
2021/05/16 10:43:50;;;;;;;;;;;20.60;44.70;;;;;;461189;258;1185;-46
2021/05/16 10:45:51;;;;;;;;;;;20.60;44.70;;;;;;461109;258;1584;-46
2021/05/16 10:47:53;;;;;;;;;;;20.60;44.70;;;;;;461083;258;1103;-46
2021/05/16 10:49:54;;;;;;;;;;;20.60;44.60;;;;;;461237;258;1192;-46
2021/05/16 10:51:55;;;;;;;;;;;20.60;44.60;;;;;;461065;258;1240;-46
2021/05/16 10:53:57;;;;;;;;;;;20.60;44.60;;;;;;461437;258;1096;-46
2021/05/16 10:55:58;;;;;;;;;;;20.60;44.60;;;;;;461324;258;2220;-46
2021/05/16 10:57:59;;;;;;;;;;;20.60;44.60;;;;;;461253;258;1221;-46
2021/05/16 11:00:00;;;;;;;;;;;20.60;44.50;;;;;;461207;258;1093;-46
2021/05/16 11:02:02;;;;;;;;;;;20.70;44.60;;;;;;461105;258;1336;-46
2021/05/16 11:04:03;;;;;;;;;;;20.70;44.60;;;;;;461186;258;1076;-46
2021/05/16 11:06:04;;;;;;;;;;;20.70;44.50;;;;;;461263;258;1173;-46
2021/05/16 11:08:06;;;;;;;;;;;20.60;44.60;;;;;;461190;258;1207;-46
2021/05/16 11:10:07;;;;;;;;;;;20.70;44.50;;;;;;461442;258;1094;-46
2021/05/16 11:12:08;;;;;;;;;;;20.60;44.60;;;;;;461111;258;1218;-46
2021/05/16 11:14:09;;;;;;;;;;;20.20;45.50;;;;;;461105;258;1214;-46
2021/05/16 11:16:11;;;;;;;;;;;19.70;46.70;;;;;;460959;258;2153;-46
2021/05/16 11:18:16;;;;;;;;;;;19.40;47.60;;;;;;461220;258;1094;-46
2021/05/16 11:20:13;;;;;;;;;;;19.10;48.20;;;;;;460910;258;1549;-46
2021/05/16 11:22:15;;;;;;;;;;;19.00;48.70;;;;;;461107;258;1170;-46
2021/05/16 11:24:16;;;;;;;;;;;18.80;49.00;;;;;;461268;258;1071;-46
2021/05/16 11:26:17;;;;;;;;;;;18.70;49.30;;;;;;461161;258;1531;-46
2021/05/16 11:28:19;;;;;;;;;;;18.60;49.60;;;;;;461359;258;1213;-46
2021/05/16 11:30:21;;;;;;;;;;;18.60;49.70;;;;;;461376;258;1088;-46
2021/05/16 11:32:28;;;;;;;;;;;18.50;49.90;;;;;;461525;258;1181;-46
2021/05/16 11:34:24;;;;;;;;;;;18.50;49.90;;;;;;460871;258;1493;-46
2021/05/16 11:36:25;;;;;;;;;;;18.50;50.00;;;;;;461241;258;2208;-46
2021/05/16 11:38:26;;;;;;;;;;;18.40;50.10;;;;;;461262;258;1083;-46
2021/05/16 11:40:31;;;;;;;;;;;18.40;50.20;;;;;;461113;258;1129;-46
2021/05/16 11:42:30;;;;;;;;;;;18.30;50.20;;;;;;461014;258;2223;-46
2021/05/16 11:44:31;;;;;;;;;;;18.30;50.20;;;;;;461200;258;1115;-46
2021/05/16 11:46:33;;;;;;;;;;;18.30;50.30;;;;;;461235;258;1281;-46
2021/05/16 11:48:35;;;;;;;;;;;18.20;50.40;;;;;;461160;258;1123;-46
2021/05/16 11:50:35;;;;;;;;;;;18.20;50.50;;;;;;461093;258;2770;-46
2021/05/16 11:52:37;;;;;;;;;;;18.20;50.50;;;;;;461131;258;1223;-46
2021/05/16 11:54:43;;;;;;;;;;;18.10;50.80;;;;;;461437;258;1045;-46
2021/05/16 11:56:40;;;;;;;;;;;18.10;50.90;;;;;;460867;258;2227;-46